Conejos, Valles Caldera, New Mexico Weather observations

Data are for 10 minute period ending at time listed.
 Day   Time   Solar   Ave.   Ave.  Ave.  Vector  Max.   Baro.   Total    
  of    of     Rad.   Air    Rel.  Wind   Wind   Wind  Press.  Precip.   
Year   Day            Temp.  Hum.  Speed  Dir.   Gust                    
2017   (MST)  Kw/m2    F      %     mph   deg.    mph    mb.     in.     
-------------------------------------------------------------------------
  20    6:30   0.00   22.1    89    5.3    39    16.7   99999.0    0.00 
  20    6:40   0.00   21.9    91    4.3    39    10.8   99999.0    0.00 
  20    6:50   0.00   21.6    93    4.4    33     8.4   99999.0    0.00 
  20    7:00   0.00   21.5    94    3.8    24     8.4   99999.0    0.00 
  20    7:10   0.00   21.5    93    5.0     9     9.0   99999.0    0.00 
  20    7:20   0.00   21.6    92    5.3    15    11.3   99999.0    0.00 
  20    7:30   0.00   21.7    91    5.9   355    13.7   99999.0    0.00 
  20    7:40   0.01   21.8    90    6.0    11    11.3   99999.0    0.00 
  20    7:50   0.02   21.9    90    5.3     7    11.3   99999.0    0.00 
  20    8:00   0.02   21.8    92    3.5    50     7.8   99999.0    0.00 
  20    8:10   0.02   21.8    92    4.7    25    10.2   99999.0    0.00 
  20    8:20   0.03   21.8    91    5.7     6    13.1   99999.0    0.00 
  20    8:30   0.02   21.9    91    4.6    28    10.8   99999.0    0.00 
  20    8:40   0.01   22.0    91    4.3    43    10.8   99999.0    0.00 
  20    8:50   0.03   22.0    90    5.1    38    10.8   99999.0    0.00 
  20    9:00   0.03   22.1    89    4.1    33    10.2   99999.0    0.00 
  20    9:10   0.02   22.1    88    4.5    44    10.2   99999.0    0.00 
  20    9:20   0.04   22.2    88    4.1    46     7.8   99999.0    0.00 
  20    9:30   0.06   22.5    87    4.3    56     9.0   99999.0    0.00 
  20    9:40   0.11   22.7    86    4.2     7     7.8   99999.0    0.00 
  20    9:50   0.15   23.7    83    3.7     9     8.4   99999.0    0.00 
  20   10:00   0.13   24.1    82    3.4    65     7.2   99999.0    0.00 
  20   10:10   0.18   25.0    79    3.3    36     7.8   99999.0    0.00 
  20   10:20   0.13   25.2    76    4.0   109     9.0   99999.0    0.00 
  20   10:30   0.18   25.3    75    3.8    58     6.6   99999.0    0.00 
  20   10:40   0.28   26.5    70    3.9    19     8.4   99999.0    0.00 
  20   10:50   0.37   26.8    68    4.4    28     9.0   99999.0    0.00 
  20   11:00   0.22   26.1    67    4.7    28    10.8   99999.0    0.00 
  20   11:10   0.28   26.1    68    5.0     8    10.2   99999.0    0.00 
  20   11:20   0.20   26.1    67    4.7    57     9.6   99999.0    0.00 
  20   11:30   0.22   26.5    66    3.9    51     9.6   99999.0    0.00 
  20   11:40   0.23   26.2    66    4.3    34    10.2   99999.0    0.00 
  20   11:50   0.17   26.0    67    4.5    41     7.2   99999.0    0.00 
  20   12:00   0.35   26.8    66    3.9    20     7.2   99999.0    0.00 
  20   12:10   0.44   27.3    64    5.1    10    13.1   99999.0    0.00 
  20   12:20   0.27   27.7    63    4.1    24     7.2   99999.0    0.00 
  20   12:30   0.23   26.9    64    3.9    69    10.8   99999.0    0.00 
  20   12:40   0.32   27.5    64    3.8    32     6.6   99999.0    0.00 
  20   12:50   0.30   27.4    61    6.1    31    11.9   99999.0    0.00 
  20   13:00   0.40   27.2    62    5.4    17    10.8   99999.0    0.00 
  20   13:10   0.38   27.6    60    5.4   357    12.5   99999.0    0.00 
  20   13:20   0.31   27.5    61    5.8    31    10.8   99999.0    0.00 
  20   13:30   0.24   26.8    62    5.8     6    11.9   99999.0    0.00 
  20   13:40   0.21   26.9    63    4.1    22     8.4   99999.0    0.00 
  20   13:50   0.17   27.3    63    4.8   350    10.2   99999.0    0.00 
  20   14:00   0.21   27.4    62    5.1    20     9.0   99999.0    0.00 
  20   14:10   0.11   27.3    62    5.6    24    13.1   99999.0    0.00 
  20   14:20   0.07   26.5    64    6.5    18    14.3   99999.0    0.00 
  20   14:30   0.07   26.5    66    4.1    60     7.8   99999.0    0.00 
  20   14:40   0.06   26.8    66    3.7   348     9.0   99999.0    0.00 
  20   14:50   0.06   26.5    68    5.3    50    10.8   99999.0    0.00 
  20   15:00   0.14   26.4    71    4.5    23     8.4   99999.0    0.00 
  20   15:10   0.10   27.0    70    3.2    37     6.6   99999.0    0.00 
  20   15:20   0.05   26.3    72    4.8     8    14.3   99999.0    0.00 
  20   15:30   0.04   25.6    76    3.5    42     9.0   99999.0    0.00 
  20   15:40   0.03   25.8    76    3.2    28     8.4   99999.0    0.00 
  20   15:50   0.05   25.7    76    3.7    38     6.0   99999.0    0.00 
  20   16:00   0.04   25.5    78    3.6    43     7.2   99999.0    0.00 
  20   16:10   0.03   24.9    82    4.2    15    10.8   99999.0    0.00 
  20   16:20   0.02   24.7    84    4.6    16     9.0   99999.0    0.00 
  20   16:30   0.02   24.5    85    4.6   346     7.8   99999.0    0.00 
  20   16:40   0.02   24.3    86    3.7   322     7.8   99999.0    0.00 
  20   16:50   0.01   24.3    87    3.7   323     8.4   99999.0    0.00 
  20   17:00   0.01   24.2    89    3.0   328     6.6   99999.0    0.00 
  20   17:10   0.00   24.0    90    3.1   343     7.2   99999.0    0.00 
  20   17:20   0.00   24.2    90    3.1   332     6.6   99999.0    0.00 
  20   17:30   0.00   24.0    90    4.0   344     8.4   99999.0    0.00 
  20   17:40   0.00   24.0    91    3.9   334     8.4   99999.0    0.00 
  20   17:50   0.00   24.0    92    3.0   335     5.4   99999.0    0.00 
  20   18:00   0.00   23.9    93    3.4   336     7.2   99999.0    0.00 
  20   18:10   0.00   23.7    94    3.8   338     7.8   99999.0    0.00 
  20   18:20   0.00   23.8    94    3.5   331     7.2   99999.0    0.00 
  20   18:30   0.00   23.8    95    2.1   336     3.6   99999.0    0.00 
  20   18:40   0.00   23.8    95    2.7   339     4.8   99999.0    0.00 
  20   18:50   0.00   23.8    96    2.4   340     4.2   99999.0    0.00 
  20   19:00   0.00   23.7    96    1.8   340     3.0   99999.0    0.00 
  20   19:10   0.00   23.8    96    0.8   334     2.4   99999.0    0.00 
  20   19:20   0.00   23.8    96    0.6   340     2.4   99999.0    0.00 
  20   19:30   0.00   23.9    96    1.3   338     2.4   99999.0    0.00 
  20   19:40   0.00   23.8    96    1.2   331     2.4   99999.0    0.00 
  20   19:50   0.00   23.9    96    0.3   329     1.8   99999.0    0.00 
  20   20:00   0.00   23.9    96    0.2    32     1.8   99999.0    0.00 
  20   20:10   0.00   24.0    96    0.2    57     1.8   99999.0    0.00 
  20   20:20   0.00   24.1    96    0.1   158     1.2   99999.0    0.00 
  20   20:30   0.00   24.2    96    0.2    78     1.2   99999.0    0.00 
  20   20:40   0.00   24.2    97    0.0   134     1.2   99999.0    0.00 
  20   20:50   0.00   24.4    97    0.1   108     1.2   99999.0    0.00 
  20   21:00   0.00   24.4    97    0.4   154     1.8   99999.0    0.00 
  20   21:10   0.00   24.5    97    0.8   125     1.8   99999.0    0.00 
  20   21:20   0.00   24.8    97    0.6   123     1.8   99999.0    0.00 
  20   21:30   0.00   24.8    97    0.9   169     3.0   99999.0    0.00 
  20   21:40   0.00   25.0    97    0.9   108     2.4   99999.0    0.00 
  20   21:50   0.00   25.0    97    0.6   136     1.8   99999.0    0.00 
  20   22:00   0.00   25.1    97    0.6   136     2.4   99999.0    0.00 
  20   22:10   0.00   25.1    97    0.4   163     1.8   99999.0    0.00 
  20   22:20   0.00   25.1    97    1.1   158     3.0   99999.0    0.00 
  20   22:30   0.00   25.1    97    1.3   166     3.0   99999.0    0.00 
  20   22:40   0.00   25.1    97    1.0   163     2.4   99999.0    0.00 
  20   22:50   0.00   25.0    97    2.0   156     5.4   99999.0    0.00 
  20   23:00   0.00   25.0    97    1.8   155     3.6   99999.0    0.00 
  20   23:10   0.00   24.9    97    1.5   148     3.6   99999.0    0.00 
  20   23:20   0.00   24.9    97    2.3   159     6.0   99999.0    0.00 
  20   23:30   0.00   24.8    97    2.5   156     5.4   99999.0    0.00 
  20   23:40   0.00   24.8    98    2.3   160     5.4   99999.0    0.00 
  20   23:50   0.00   24.8    98    1.4   169     4.2   99999.0    0.00 
  21    0:00   0.00   24.8    98    2.7   167     6.0   99999.0    0.00 
  21    0:10   0.00   24.8    98    1.8   156     4.8   99999.0    0.00 
  21    0:20   0.00   24.7    98    2.0   160     3.6   99999.0    0.00 
  21    0:30   0.00   24.7    98    2.0   168     4.2   99999.0    0.00 
  21    0:40   0.00   24.8    98    2.1   157     4.2   99999.0    0.00 
  21    0:50   0.00   24.8    98    0.7   178     2.4   99999.0    0.00 
  21    1:00   0.00   24.8    98    0.6   146     2.4   99999.0    0.00 
  21    1:10   0.00   24.8    98    1.5   151     3.6   99999.0    0.00 
  21    1:20   0.00   24.8    98    1.8   159     4.8   99999.0    0.00 
  21    1:30   0.00   24.9    98    2.1   163     5.4   99999.0    0.00 
  21    1:40   0.00   25.0    98    2.0   156     6.0   99999.0    0.00 
  21    1:50   0.00   25.0    98    1.2   166     4.2   99999.0    0.00 
  21    2:00   0.00   25.1    98    1.8   151     5.4   99999.0    0.00 
  21    2:10   0.00   25.3    98    2.4   155     4.8   99999.0    0.00 
  21    2:20   0.00   25.5    98    2.9   162     6.0   99999.0    0.00 
  21    2:30   0.00   25.6    98    2.9   162     6.6   99999.0    0.00 
  21    2:40   0.00   25.7    98    4.1   166     9.6   99999.0    0.00 
  21    2:50   0.00   25.8    98    3.6   164     9.6   99999.0    0.00 
  21    3:00   0.00   25.8    98    3.4   161     7.8   99999.0    0.00 
  21    3:10   0.00   25.8    98    3.5   158     7.2   99999.0    0.00 
  21    3:20   0.00   25.7    98    3.6   162     9.6   99999.0    0.01 
  21    3:30   0.00   25.6    98    4.3   164    11.3   99999.0    0.00 
  21    3:40   0.00   25.6    98    2.3   144     6.0   99999.0    0.00 
  21    3:50   0.00   25.6    98    2.6   152     6.0   99999.0    0.00 
  21    4:00   0.00   25.7    98    3.6   150     7.8   99999.0    0.00 
  21    4:10   0.00   25.8    98    4.0   157    10.8   99999.0    0.04 
  21    4:20   0.00   25.7    98    3.2   155     9.0   99999.0    0.04 
  21    4:30   0.00   25.9    98    3.4   160     8.4   99999.0    0.02 
  21    4:40   0.00   26.0    98    3.1   163     9.6   99999.0    0.00 
  21    4:50   0.00   26.1    98    2.9   158     8.4   99999.0    0.01 
  21    5:00   0.00   26.3    98    2.5   152     7.2   99999.0    0.00 
  21    5:10   0.00   26.3    98    3.8   158    11.9   99999.0    0.00 
  21    5:20   0.00   26.3    98    4.0   159    10.8   99999.0    0.00 
  21    5:30   0.00   26.3    98    4.9   156    14.3   99999.0    0.00 
  21    5:40   0.00   26.4    98    4.9   157    11.9   99999.0    0.00 
  21    5:50   0.00   26.4    98    3.3   152    10.2   99999.0    0.00 
  21    6:00   0.00   26.3    98    3.5   162     7.8   99999.0    0.00 
  21    6:10   0.00   26.3    98    4.1   164     9.6   99999.0    0.00 
  21    6:20   0.00   26.3    98    3.7   166    13.7   99999.0    0.00 

Return to Conejos, Valles Caldera graphs page.


Western Regional Climate Center,wrcc@dri.edu